Time;durP1;ratioP1;P1;durP2;ratioP2;P2;SDS_P1;SDS_P2;PMS_P1;PMS_P2;Temp;Humidity;BMP_temperature;BMP_pressure;BME280_temperature;BME280_humidity;BME280_pressure;Samples;Min_cycle;Max_cycle;Signal;HPM_P1;HPM_P2
2022/12/20 00:01:29;;;;;;;;;7.00;6.00;;;;;;;;5051621;28;45483;-72
2022/12/20 00:03:55;;;;;;;;;7.33;6.33;;;;;;;;5053066;28;45318;-73
2022/12/20 00:06:21;;;;;;;;;7.33;7.33;;;;;;;;5040714;28;45364;-72
2022/12/20 00:08:51;;;;;;;;;8.67;6.00;;;;;;;;5052911;28;45755;-71
2022/12/20 00:11:17;;;;;;;;;8.67;7.67;;;;;;;;5049538;28;45367;-72
2022/12/20 00:13:44;;;;;;;;;7.67;6.00;;;;;;;;5051551;28;45348;-71
2022/12/20 00:16:11;;;;;;;;;6.33;5.00;;;;;;;;5040097;28;47839;-72
2022/12/20 00:18:37;;;;;;;;;8.33;7.00;;;;;;;;5052249;28;45357;-72
2022/12/20 00:21:03;;;;;;;;;6.00;4.67;;;;;;;;5039827;28;45347;-72
2022/12/20 00:23:28;;;;;;;;;7.00;6.00;;;;;;;;5034645;28;45634;-71
2022/12/20 00:26:04;;;;;;;;;9.00;6.67;;;;;;;;5053925;28;46062;-71
2022/12/20 00:28:30;;;;;;;;;7.00;5.33;;;;;;;;5055609;28;45392;-71
2022/12/20 00:30:55;;;;;;;;;3.00;3.00;;;;;;;;5052883;28;45465;-71
2022/12/20 00:33:21;;;;;;;;;7.00;7.00;;;;;;;;5054838;28;45438;-71
2022/12/20 00:35:46;;;;;;;;;7.00;5.00;;;;;;;;5053708;28;45274;-71
2022/12/20 00:38:11;;;;;;;;;6.00;4.33;;;;;;;;5047152;28;45272;-72
2022/12/20 00:40:36;;;;;;;;;6.00;6.00;;;;;;;;5055315;28;45289;-71
2022/12/20 00:43:02;;;;;;;;;7.00;6.00;;;;;;;;5049715;28;45561;-71
2022/12/20 00:45:27;;;;;;;;;6.00;6.00;;;;;;;;5056418;28;45308;-71
2022/12/20 00:47:52;;;;;;;;;13.33;7.67;;;;;;;;5049298;28;45337;-71
2022/12/20 00:50:17;;;;;;;;;6.67;4.33;;;;;;;;5057286;28;45279;-71
2022/12/20 00:52:43;;;;;;;;;6.00;6.00;;;;;;;;5044306;28;45346;-71
2022/12/20 00:55:08;;;;;;;;;5.67;5.00;;;;;;;;5036903;28;46072;-71
2022/12/20 00:57:33;;;;;;;;;6.67;6.67;;;;;;;;5048611;28;45293;-72
2022/12/20 00:59:59;;;;;;;;;5.67;5.67;;;;;;;;5058054;28;45372;-71
2022/12/20 01:02:24;;;;;;;;;6.00;6.00;;;;;;;;5043945;28;45677;-71
2022/12/20 01:04:49;;;;;;;;;8.00;5.67;;;;;;;;5053644;28;45426;-71
2022/12/20 01:07:14;;;;;;;;;4.33;4.33;;;;;;;;5044583;28;45560;-71
2022/12/20 01:09:40;;;;;;;;;5.67;4.33;;;;;;;;5058687;28;45400;-71
2022/12/20 01:12:05;;;;;;;;;5.67;5.67;;;;;;;;5049269;28;45475;-71
2022/12/20 01:14:30;;;;;;;;;6.00;6.00;;;;;;;;5023644;28;48266;-71
2022/12/20 01:16:55;;;;;;;;;4.00;4.00;;;;;;;;5049301;28;45286;-71
2022/12/20 01:19:21;;;;;;;;;3.33;3.33;;;;;;;;5055456;28;45245;-71
2022/12/20 01:21:46;;;;;;;;;5.00;4.00;;;;;;;;5051886;28;45211;-71
2022/12/20 01:24:15;;;;;;;;;5.33;4.00;;;;;;;;5055718;28;45325;-71
2022/12/20 01:26:40;;;;;;;;;5.00;4.00;;;;;;;;5054011;28;45348;-71
2022/12/20 01:29:06;;;;;;;;;4.33;3.33;;;;;;;;5057312;28;45561;-71
2022/12/20 01:31:31;;;;;;;;;5.00;4.00;;;;;;;;5056582;28;45286;-71
2022/12/20 01:33:56;;;;;;;;;7.00;5.00;;;;;;;;5054399;28;45452;-71
2022/12/20 01:36:26;;;;;;;;;4.00;4.00;;;;;;;;5050794;28;45416;-71
2022/12/20 01:38:55;;;;;;;;;5.67;4.00;;;;;;;;5055627;28;45233;-71
2022/12/20 01:41:21;;;;;;;;;5.00;3.33;;;;;;;;5053272;28;45726;-71
2022/12/20 01:43:50;;;;;;;;;4.00;3.00;;;;;;;;5056308;28;46341;-71
2022/12/20 01:46:16;;;;;;;;;3.33;3.33;;;;;;;;5052737;28;45235;-71
2022/12/20 01:48:43;;;;;;;;;4.00;4.00;;;;;;;;5050786;28;45368;-71
2022/12/20 01:51:09;;;;;;;;;2.00;2.00;;;;;;;;5047486;28;45318;-71
2022/12/20 01:53:34;;;;;;;;;4.00;4.00;;;;;;;;5054552;28;45281;-71
2022/12/20 01:56:02;;;;;;;;;5.00;3.00;;;;;;;;5052359;28;46469;-71
2022/12/20 01:58:28;;;;;;;;;3.67;3.00;;;;;;;;5053625;28;45459;-71
2022/12/20 02:00:53;;;;;;;;;3.00;3.00;;;;;;;;5052724;28;45366;-71
2022/12/20 02:03:18;;;;;;;;;5.00;5.00;;;;;;;;5042076;28;45428;-71
2022/12/20 02:05:44;;;;;;;;;3.67;3.00;;;;;;;;5051045;28;45321;-71
2022/12/20 02:08:12;;;;;;;;;3.67;3.00;;;;;;;;5039093;28;45424;-71
2022/12/20 02:10:55;;;;;;;;;4.00;4.00;;;;;;;;5054030;28;46263;-71
2022/12/20 02:13:30;;;;;;;;;3.33;3.33;;;;;;;;5047680;28;45194;-71
2022/12/20 02:15:56;;;;;;;;;3.67;3.00;;;;;;;;5051783;28;45361;-71
2022/12/20 02:18:30;;;;;;;;;4.33;4.33;;;;;;;;5049945;28;45155;-71
2022/12/20 02:21:11;;;;;;;;;5.33;4.00;;;;;;;;5053570;28;46017;-71
2022/12/20 02:23:48;;;;;;;;;5.00;4.00;;;;;;;;5049802;28;45428;-71
2022/12/20 02:26:13;;;;;;;;;2.33;2.33;;;;;;;;5051155;28;45451;-71
2022/12/20 02:28:44;;;;;;;;;3.00;3.00;;;;;;;;5052432;28;45462;-71
2022/12/20 02:31:12;;;;;;;;;4.00;4.00;;;;;;;;5038895;28;46252;-71
2022/12/20 02:33:40;;;;;;;;;3.67;3.00;;;;;;;;5053569;28;45337;-71
2022/12/20 02:36:06;;;;;;;;;2.67;2.67;;;;;;;;5036936;28;45452;-71
2022/12/20 02:38:33;;;;;;;;;4.33;3.00;;;;;;;;5048922;28;45182;-71
2022/12/20 02:41:02;;;;;;;;;3.00;3.00;;;;;;;;5038493;28;46084;-71
2022/12/20 02:46:12;;;;;;;;;3.00;3.00;;;;;;;;5051965;28;45463;-71
2022/12/20 02:48:38;;;;;;;;;2.67;2.67;;;;;;;;5036843;28;45764;-71
2022/12/20 02:51:05;;;;;;;;;5.00;3.00;;;;;;;;5053331;28;45632;-71
2022/12/20 02:53:30;;;;;;;;;6.00;2.33;;;;;;;;5050992;28;45394;-71
2022/12/20 02:56:02;;;;;;;;;5.00;5.00;;;;;;;;5054374;28;45269;-71
2022/12/20 02:58:36;;;;;;;;;4.00;4.00;;;;;;;;5042834;28;45639;-71
2022/12/20 03:01:05;;;;;;;;;5.00;3.33;;;;;;;;5051992;28;45522;-71
2022/12/20 03:03:34;;;;;;;;;4.67;3.33;;;;;;;;5045855;28;45511;-71
2022/12/20 03:05:59;;;;;;;;;5.33;4.00;;;;;;;;5054932;28;45273;-71
2022/12/20 03:08:25;;;;;;;;;5.33;4.00;;;;;;;;5054184;28;45423;-71
2022/12/20 03:10:51;;;;;;;;;3.67;3.67;;;;;;;;5042000;28;46047;-71
2022/12/20 03:13:16;;;;;;;;;3.67;3.67;;;;;;;;5041596;28;46995;-71
2022/12/20 03:15:42;;;;;;;;;2.33;2.33;;;;;;;;5056649;28;46030;-71
2022/12/20 03:18:07;;;;;;;;;2.33;2.00;;;;;;;;5057426;28;45304;-71
2022/12/20 03:20:32;;;;;;;;;4.00;4.00;;;;;;;;5057083;28;45557;-71
2022/12/20 03:22:58;;;;;;;;;4.00;4.00;;;;;;;;5048910;28;45422;-71
2022/12/20 03:25:23;;;;;;;;;2.33;2.33;;;;;;;;5058812;28;45377;-71
2022/12/20 03:27:48;;;;;;;;;5.00;3.33;;;;;;;;5037651;28;45323;-71
2022/12/20 03:30:13;;;;;;;;;1.67;1.67;;;;;;;;5058817;28;45328;-71
2022/12/20 03:32:39;;;;;;;;;2.00;2.00;;;;;;;;5032416;28;46789;-71
2022/12/20 03:35:04;;;;;;;;;4.00;3.67;;;;;;;;5058506;28;45471;-71
2022/12/20 03:37:29;;;;;;;;;3.67;3.00;;;;;;;;5046702;28;45267;-71
2022/12/20 03:39:54;;;;;;;;;2.67;2.00;;;;;;;;5060024;28;45364;-71
2022/12/20 03:42:20;;;;;;;;;3.00;3.00;;;;;;;;5048001;28;45323;-71
2022/12/20 03:44:45;;;;;;;;;2.33;2.33;;;;;;;;5060953;28;45328;-71
2022/12/20 03:47:10;;;;;;;;;7.00;4.00;;;;;;;;5046577;28;45514;-71
2022/12/20 03:49:35;;;;;;;;;2.00;2.00;;;;;;;;5060215;28;45434;-71
2022/12/20 03:52:00;;;;;;;;;3.00;3.00;;;;;;;;5045722;28;45485;-71
2022/12/20 03:54:26;;;;;;;;;4.00;2.00;;;;;;;;5048171;28;45560;-71
2022/12/20 03:56:51;;;;;;;;;3.00;3.00;;;;;;;;5051481;28;45363;-71
2022/12/20 03:59:16;;;;;;;;;5.67;2.67;;;;;;;;5056075;28;45296;-71
2022/12/20 04:01:41;;;;;;;;;2.33;2.33;;;;;;;;5051645;28;45493;-71
2022/12/20 04:04:07;;;;;;;;;2.67;2.33;;;;;;;;5051349;28;45216;-71
2022/12/20 04:06:32;;;;;;;;;3.00;3.00;;;;;;;;5050848;28;45231;-71
2022/12/20 04:08:57;;;;;;;;;3.00;3.00;;;;;;;;5056813;28;45424;-71
2022/12/20 04:11:22;;;;;;;;;4.00;4.00;;;;;;;;5052100;28;45982;-71
2022/12/20 04:13:49;;;;;;;;;5.00;3.00;;;;;;;;5058506;28;45209;-71
2022/12/20 04:16:15;;;;;;;;;3.00;3.00;;;;;;;;5051285;28;45436;-71
2022/12/20 04:18:41;;;;;;;;;5.33;2.33;;;;;;;;5036127;28;45544;-71
2022/12/20 04:21:06;;;;;;;;;4.67;3.67;;;;;;;;5053147;28;46123;-71
2022/12/20 04:23:35;;;;;;;;;4.00;4.00;;;;;;;;5056556;28;45352;-71
2022/12/20 04:26:01;;;;;;;;;5.00;4.00;;;;;;;;5052629;28;45345;-71
2022/12/20 04:28:26;;;;;;;;;3.00;3.00;;;;;;;;5057390;28;45602;-71
2022/12/20 04:30:52;;;;;;;;;4.00;4.00;;;;;;;;5051842;28;46117;-71
2022/12/20 04:33:17;;;;;;;;;4.33;3.00;;;;;;;;5052126;28;45148;-71
2022/12/20 04:35:42;;;;;;;;;5.33;4.00;;;;;;;;5053231;28;45230;-71
2022/12/20 04:38:07;;;;;;;;;3.67;3.67;;;;;;;;5050145;28;44871;-71
2022/12/20 04:40:32;;;;;;;;;4.00;2.00;;;;;;;;5056493;28;45472;-71
2022/12/20 04:42:58;;;;;;;;;5.33;5.33;;;;;;;;5056816;28;45293;-71
2022/12/20 04:45:23;;;;;;;;;3.67;2.67;;;;;;;;5057866;28;45192;-71
2022/12/20 04:47:48;;;;;;;;;5.00;3.00;;;;;;;;5036310;28;46085;-71
2022/12/20 04:50:13;;;;;;;;;4.00;2.00;;;;;;;;5056594;28;45160;-71
2022/12/20 04:55:23;;;;;;;;;4.00;4.00;;;;;;;;5052827;28;45274;-71
2022/12/20 04:57:48;;;;;;;;;3.33;2.33;;;;;;;;5048784;28;45261;-72
2022/12/20 05:00:14;;;;;;;;;4.00;3.00;;;;;;;;5038154;28;46711;-71
2022/12/20 05:02:39;;;;;;;;;3.00;3.00;;;;;;;;5054379;28;45431;-71
2022/12/20 05:05:04;;;;;;;;;2.67;2.67;;;;;;;;5057508;28;45403;-71
2022/12/20 05:07:30;;;;;;;;;2.00;2.00;;;;;;;;5048460;28;44790;-71
2022/12/20 05:09:55;;;;;;;;;3.00;3.00;;;;;;;;5058368;28;45393;-71
2022/12/20 05:12:20;;;;;;;;;3.67;2.67;;;;;;;;5047686;28;45439;-71
2022/12/20 05:14:45;;;;;;;;;3.33;2.00;;;;;;;;5054636;28;45231;-71
2022/12/20 05:17:10;;;;;;;;;2.33;2.33;;;;;;;;5052363;28;45108;-71
2022/12/20 05:19:36;;;;;;;;;4.00;1.67;;;;;;;;5040655;28;46449;-71
2022/12/20 05:27:29;;;;;;;;;2.00;2.00;;;;;;;;5041388;28;45226;-71
2022/12/20 05:29:54;;;;;;;;;2.33;2.33;;;;;;;;5056361;28;45999;-73
2022/12/20 05:32:19;;;;;;;;;2.00;1.00;;;;;;;;5046721;28;45230;-72
2022/12/20 05:34:45;;;;;;;;;2.00;2.00;;;;;;;;5056802;28;45172;-72
2022/12/20 05:37:10;;;;;;;;;2.33;2.33;;;;;;;;5044943;28;44794;-72
2022/12/20 05:39:35;;;;;;;;;3.00;2.00;;;;;;;;5057028;28;45146;-72
2022/12/20 05:42:00;;;;;;;;;4.00;1.67;;;;;;;;5046644;28;45214;-72
2022/12/20 05:44:25;;;;;;;;;1.33;1.00;;;;;;;;5055205;28;45527;-72
2022/12/20 05:46:51;;;;;;;;;2.00;1.00;;;;;;;;5048816;28;45310;-72
2022/12/20 05:49:16;;;;;;;;;4.00;2.33;;;;;;;;5057208;28;45355;-72
2022/12/20 05:51:41;;;;;;;;;3.00;2.00;;;;;;;;5048153;28;44750;-72
2022/12/20 05:54:07;;;;;;;;;1.33;1.00;;;;;;;;5059042;28;45320;-72
2022/12/20 05:56:32;;;;;;;;;2.67;2.67;;;;;;;;5050650;28;45397;-71
2022/12/20 05:58:58;;;;;;;;;2.00;2.00;;;;;;;;5049708;28;45591;-72
2022/12/20 06:01:23;;;;;;;;;3.00;2.00;;;;;;;;5048629;28;45370;-72
2022/12/20 06:03:49;;;;;;;;;2.33;2.33;;;;;;;;5044300;28;45336;-71
2022/12/20 06:06:15;;;;;;;;;2.33;2.33;;;;;;;;5050633;28;45325;-72
2022/12/20 06:08:40;;;;;;;;;2.67;2.67;;;;;;;;5048031;28;45903;-71
2022/12/20 06:11:05;;;;;;;;;4.00;3.00;;;;;;;;5051938;28;45411;-72
2022/12/20 06:13:31;;;;;;;;;6.00;3.00;;;;;;;;5047506;28;45289;-72
2022/12/20 06:15:56;;;;;;;;;2.00;2.00;;;;;;;;5051913;28;45503;-72
2022/12/20 06:18:21;;;;;;;;;2.00;2.00;;;;;;;;5035949;28;47224;-71
2022/12/20 06:20:51;;;;;;;;;2.67;2.00;;;;;;;;5037886;28;45253;-72
2022/12/20 06:23:16;;;;;;;;;3.00;2.00;;;;;;;;5040969;28;45238;-72
2022/12/20 06:25:42;;;;;;;;;3.00;3.00;;;;;;;;5057839;28;45549;-72
2022/12/20 06:28:07;;;;;;;;;5.00;3.67;;;;;;;;5055872;28;45466;-72
2022/12/20 06:30:33;;;;;;;;;6.00;3.67;;;;;;;;5058767;28;45574;-72
2022/12/20 06:32:58;;;;;;;;;2.00;2.00;;;;;;;;5046508;28;45498;-72
2022/12/20 06:35:23;;;;;;;;;2.33;2.33;;;;;;;;5057831;28;45451;-71
2022/12/20 06:37:48;;;;;;;;;3.00;3.00;;;;;;;;5047611;28;45249;-71
2022/12/20 06:40:14;;;;;;;;;7.33;4.00;;;;;;;;5059178;28;45260;-71
2022/12/20 06:42:39;;;;;;;;;4.67;3.00;;;;;;;;5034337;28;45406;-71
2022/12/20 06:45:05;;;;;;;;;4.00;2.67;;;;;;;;5059984;28;45246;-71
2022/12/20 06:47:30;;;;;;;;;3.00;3.00;;;;;;;;5054942;28;45314;-72
2022/12/20 06:49:55;;;;;;;;;2.00;2.00;;;;;;;;5061185;28;45513;-71
2022/12/20 06:52:20;;;;;;;;;1.67;1.67;;;;;;;;5048775;28;45358;-71
2022/12/20 06:54:46;;;;;;;;;3.33;3.33;;;;;;;;5043375;28;45539;-71
2022/12/20 06:57:11;;;;;;;;;5.00;3.00;;;;;;;;5056735;28;46703;-72
2022/12/20 06:59:36;;;;;;;;;3.67;3.00;;;;;;;;5061684;28;45355;-72
2022/12/20 07:02:01;;;;;;;;;2.67;2.67;;;;;;;;5047418;28;45211;-72
2022/12/20 07:04:27;;;;;;;;;3.00;2.00;;;;;;;;5050512;28;45210;-71
2022/12/20 07:06:52;;;;;;;;;4.00;3.00;;;;;;;;5041384;28;46642;-71
2022/12/20 07:09:17;;;;;;;;;4.00;3.00;;;;;;;;5041111;28;45390;-71
2022/12/20 07:11:42;;;;;;;;;4.33;3.33;;;;;;;;5054467;28;45238;-71
2022/12/20 07:14:07;;;;;;;;;5.00;5.00;;;;;;;;5052851;28;45456;-72
2022/12/20 07:16:33;;;;;;;;;3.67;3.33;;;;;;;;5053717;28;45414;-72
2022/12/20 07:18:58;;;;;;;;;4.00;3.67;;;;;;;;5056240;28;45207;-71
2022/12/20 07:21:23;;;;;;;;;3.67;3.67;;;;;;;;5040433;28;45392;-72
2022/12/20 07:23:49;;;;;;;;;3.00;3.00;;;;;;;;5057087;28;45538;-71
2022/12/20 07:26:14;;;;;;;;;2.67;2.67;;;;;;;;5053995;28;45566;-71
2022/12/20 07:28:42;;;;;;;;;3.33;1.00;;;;;;;;5055821;28;45242;-72
2022/12/20 07:31:07;;;;;;;;;3.33;3.33;;;;;;;;5041913;28;45489;-71
2022/12/20 07:33:34;;;;;;;;;2.67;2.67;;;;;;;;5056557;28;45477;-72
2022/12/20 07:36:03;;;;;;;;;4.33;3.33;;;;;;;;5036651;28;48099;-71
2022/12/20 07:38:28;;;;;;;;;3.67;3.00;;;;;;;;5047639;28;45245;-71
2022/12/20 07:40:54;;;;;;;;;3.67;3.67;;;;;;;;5051737;28;45495;-71
2022/12/20 07:43:19;;;;;;;;;4.00;3.67;;;;;;;;5042466;28;45976;-71
2022/12/20 07:45:44;;;;;;;;;2.00;2.00;;;;;;;;5057956;28;45885;-71
2022/12/20 07:48:09;;;;;;;;;3.33;2.33;;;;;;;;5056729;28;45169;-71
2022/12/20 07:50:34;;;;;;;;;3.00;3.00;;;;;;;;5057379;28;45532;-70
2022/12/20 07:53:03;;;;;;;;;2.00;1.00;;;;;;;;5047365;28;45466;-71
2022/12/20 07:55:30;;;;;;;;;3.00;3.00;;;;;;;;5056690;28;46130;-71
2022/12/20 07:57:59;;;;;;;;;2.00;2.00;;;;;;;;5024519;28;45509;-71
2022/12/20 08:00:24;;;;;;;;;2.00;2.00;;;;;;;;5023216;28;45391;-71
2022/12/20 08:03:08;;;;;;;;;2.67;2.67;;;;;;;;5027963;28;45796;-72
2022/12/20 08:05:36;;;;;;;;;5.00;2.67;;;;;;;;5041882;28;46082;-73
2022/12/20 08:08:02;;;;;;;;;3.33;2.00;;;;;;;;5025433;28;45298;-73
2022/12/20 08:10:29;;;;;;;;;3.00;1.67;;;;;;;;5040823;28;45800;-73
2022/12/20 08:12:54;;;;;;;;;4.00;3.00;;;;;;;;5043781;28;45462;-73
2022/12/20 08:15:21;;;;;;;;;2.00;2.00;;;;;;;;5045550;28;45284;-73
2022/12/20 08:17:47;;;;;;;;;1.00;1.00;;;;;;;;5043498;28;45286;-73
2022/12/20 08:20:12;;;;;;;;;1.00;1.00;;;;;;;;5025483;28;45290;-72
2022/12/20 08:22:37;;;;;;;;;2.67;2.67;;;;;;;;5041958;28;45253;-73
2022/12/20 08:25:03;;;;;;;;;3.00;2.00;;;;;;;;5042058;28;46090;-73
2022/12/20 08:27:29;;;;;;;;;4.33;4.00;;;;;;;;5043328;28;45626;-72
2022/12/20 08:29:54;;;;;;;;;3.67;3.67;;;;;;;;5045536;28;45260;-73
2022/12/20 08:32:19;;;;;;;;;2.67;2.67;;;;;;;;5026832;28;45282;-72
2022/12/20 08:34:44;;;;;;;;;6.33;3.00;;;;;;;;5044011;28;46177;-72
2022/12/20 08:37:10;;;;;;;;;2.00;2.00;;;;;;;;5039514;28;45231;-73
2022/12/20 08:39:36;;;;;;;;;3.00;3.00;;;;;;;;5042096;28;45234;-73
2022/12/20 08:42:03;;;;;;;;;5.00;3.00;;;;;;;;5041192;28;45321;-73
2022/12/20 08:44:28;;;;;;;;;5.00;4.00;;;;;;;;5044249;28;45305;-71
2022/12/20 08:46:53;;;;;;;;;2.00;2.00;;;;;;;;5025192;28;45663;-73
2022/12/20 08:49:18;;;;;;;;;2.67;2.67;;;;;;;;5022957;28;45384;-72
2022/12/20 08:51:43;;;;;;;;;5.00;4.00;;;;;;;;5040308;28;45437;-73
2022/12/20 08:54:09;;;;;;;;;3.00;2.00;;;;;;;;5042645;28;45658;-73
2022/12/20 08:56:34;;;;;;;;;0.00;0.00;;;;;;;;5039402;28;45416;-74
2022/12/20 08:58:59;;;;;;;;;4.67;3.67;;;;;;;;5040357;28;45315;-73
2022/12/20 09:01:25;;;;;;;;;5.00;2.00;;;;;;;;5041583;28;45380;-73
2022/12/20 09:03:51;;;;;;;;;3.00;3.00;;;;;;;;5043739;28;45458;-73
2022/12/20 09:06:18;;;;;;;;;4.00;4.00;;;;;;;;5040686;28;45334;-73
2022/12/20 09:08:44;;;;;;;;;2.00;2.00;;;;;;;;5041778;28;45310;-72
2022/12/20 09:11:13;;;;;;;;;3.00;3.00;;;;;;;;5038967;28;45532;-72
2022/12/20 09:13:39;;;;;;;;;5.00;3.67;;;;;;;;5041119;28;46511;-71
2022/12/20 09:16:05;;;;;;;;;4.00;4.00;;;;;;;;5040424;28;45479;-72
2022/12/20 09:18:31;;;;;;;;;3.00;3.00;;;;;;;;5040700;28;45491;-72
2022/12/20 09:21:00;;;;;;;;;3.00;3.00;;;;;;;;5038733;28;45326;-71
2022/12/20 09:23:25;;;;;;;;;2.33;2.33;;;;;;;;5026532;28;47923;-71
2022/12/20 09:25:50;;;;;;;;;4.67;3.00;;;;;;;;5039734;28;45374;-72
2022/12/20 09:28:16;;;;;;;;;3.67;2.67;;;;;;;;5040475;28;45407;-72
2022/12/20 09:30:41;;;;;;;;;2.67;2.67;;;;;;;;5040449;28;45492;-72
2022/12/20 09:33:06;;;;;;;;;3.00;3.00;;;;;;;;5042060;28;45510;-74
2022/12/20 09:35:32;;;;;;;;;2.00;2.00;;;;;;;;5040753;28;45348;-74
2022/12/20 09:37:57;;;;;;;;;4.00;2.67;;;;;;;;5040808;28;45450;-73
2022/12/20 09:40:24;;;;;;;;;3.00;3.00;;;;;;;;5039911;28;45426;-73
2022/12/20 09:42:50;;;;;;;;;3.00;3.00;;;;;;;;5042272;28;45650;-72
2022/12/20 09:45:23;;;;;;;;;2.67;2.67;;;;;;;;5041301;28;45428;-74
2022/12/20 09:47:48;;;;;;;;;4.00;4.00;;;;;;;;5056093;28;45423;-73
2022/12/20 09:50:15;;;;;;;;;83.75;75.50;;;;;;;;5037109;28;46204;-75
2022/12/20 09:52:54;;;;;;;;;3.67;3.67;;;;;;;;5049743;28;46562;-75
2022/12/20 09:55:41;;;;;;;;;3.00;3.00;;;;;;;;5023119;28;45314;-75
2022/12/20 09:58:24;;;;;;;;;3.00;3.00;;;;;;;;5057584;28;45435;-75
2022/12/20 10:00:50;;;;;;;;;6.00;3.33;;;;;;;;5057591;28;45810;-75
2022/12/20 10:03:20;;;;;;;;;4.00;4.00;;;;;;;;5060114;28;45443;-75
2022/12/20 10:05:55;;;;;;;;;4.00;4.00;;;;;;;;5057211;28;45428;-75
2022/12/20 10:08:35;;;;;;;;;5.33;3.33;;;;;;;;5060102;28;45396;-76
2022/12/20 10:11:03;;;;;;;;;4.00;2.00;;;;;;;;5055718;28;45491;-75
2022/12/20 10:13:42;;;;;;;;;1.33;1.33;;;;;;;;5041715;28;45687;-75
2022/12/20 10:16:21;;;;;;;;;3.33;3.00;;;;;;;;5057196;28;45282;-75
2022/12/20 10:18:58;;;;;;;;;4.00;3.00;;;;;;;;5060227;28;45423;-74
2022/12/20 10:21:28;;;;;;;;;3.00;3.00;;;;;;;;5056358;28;45526;-75
2022/12/20 10:24:00;;;;;;;;;3.00;3.00;;;;;;;;5060799;28;45344;-75
2022/12/20 10:26:26;;;;;;;;;5.00;4.67;;;;;;;;5041351;28;45464;-74
2022/12/20 10:28:51;;;;;;;;;4.00;4.00;;;;;;;;5061131;28;45336;-75
2022/12/20 10:31:17;;;;;;;;;5.67;5.00;;;;;;;;5055515;28;45466;-75
2022/12/20 10:33:43;;;;;;;;;4.00;4.00;;;;;;;;5054147;28;45395;-79
2022/12/20 10:36:26;;;;;;;;;4.00;4.00;;;;;;;;5053864;28;45687;-80
2022/12/20 10:38:53;;;;;;;;;4.67;4.00;;;;;;;;5060318;28;45382;-80
2022/12/20 10:41:20;;;;;;;;;5.00;3.00;;;;;;;;5056141;28;45475;-79
2022/12/20 10:43:48;;;;;;;;;4.33;4.00;;;;;;;;5042704;28;48109;-80
2022/12/20 10:46:15;;;;;;;;;3.67;3.67;;;;;;;;5041172;28;45546;-78
2022/12/20 10:48:41;;;;;;;;;5.33;3.67;;;;;;;;5061050;28;45400;-80
2022/12/20 10:51:09;;;;;;;;;5.33;4.00;;;;;;;;5054401;28;45438;-77
2022/12/20 10:53:35;;;;;;;;;5.00;5.00;;;;;;;;5048829;28;46239;-77
2022/12/20 10:56:11;;;;;;;;;4.67;4.67;;;;;;;;5045271;28;46323;-76
2022/12/20 10:58:37;;;;;;;;;14.75;13.25;;;;;;;;5046118;28;45360;-78
2022/12/20 11:01:11;;;;;;;;;3.00;3.00;;;;;;;;5042703;28;45516;-79
2022/12/20 11:03:48;;;;;;;;;7.00;4.00;;;;;;;;5042902;28;47733;-77
2022/12/20 11:06:15;;;;;;;;;11.33;8.00;;;;;;;;5052357;28;45779;-77
2022/12/20 11:08:40;;;;;;;;;5.33;4.33;;;;;;;;5060060;28;45298;-77
2022/12/20 11:11:23;;;;;;;;;5.00;4.00;;;;;;;;5053792;28;45117;-77
2022/12/20 11:13:50;;;;;;;;;4.00;4.00;;;;;;;;5060225;28;45387;-76
2022/12/20 11:16:22;;;;;;;;;6.33;6.33;;;;;;;;5053248;28;45447;-77
2022/12/20 11:18:53;;;;;;;;;5.33;4.00;;;;;;;;5042977;28;45431;-77
2022/12/20 11:21:40;;;;;;;;;4.67;3.00;;;;;;;;5053611;28;45599;-76
2022/12/20 11:24:19;;;;;;;;;4.00;4.00;;;;;;;;5060212;28;45174;-77
2022/12/20 11:26:44;;;;;;;;;6.67;5.67;;;;;;;;5040662;28;45486;-75
2022/12/20 11:29:18;;;;;;;;;6.67;3.67;;;;;;;;5060447;28;45391;-76
2022/12/20 11:32:04;;;;;;;;;4.00;4.00;;;;;;;;5048560;28;45496;-77
2022/12/20 11:34:48;;;;;;;;;4.67;4.00;;;;;;;;5059455;28;45600;-76
2022/12/20 11:37:18;;;;;;;;;5.33;4.00;;;;;;;;5053316;28;45420;-75
2022/12/20 11:39:46;;;;;;;;;6.00;5.00;;;;;;;;5042575;28;45301;-77
2022/12/20 11:42:20;;;;;;;;;7.67;7.67;;;;;;;;5054736;28;44878;-77
2022/12/20 11:44:45;;;;;;;;;15.75;14.75;;;;;;;;5039363;28;46950;-77
2022/12/20 11:47:25;;;;;;;;;7.00;4.67;;;;;;;;5053193;28;45457;-76
2022/12/20 11:50:10;;;;;;;;;43.75;37.25;;;;;;;;5041587;28;45499;-76
2022/12/20 11:52:42;;;;;;;;;6.33;6.33;;;;;;;;5036352;28;47114;-77
2022/12/20 11:55:14;;;;;;;;;4.00;4.00;;;;;;;;5059265;28;45427;-77
2022/12/20 11:57:44;;;;;;;;;39.50;34.00;;;;;;;;5053877;28;45440;-77
2022/12/20 12:00:17;;;;;;;;;7.33;7.33;;;;;;;;5059074;28;45494;-76
2022/12/20 12:02:57;;;;;;;;;10.67;9.67;;;;;;;;5040168;28;46929;-77
2022/12/20 12:05:28;;;;;;;;;46.75;39.50;;;;;;;;5056574;28;45448;-77
2022/12/20 12:08:00;;;;;;;;;8.00;8.00;;;;;;;;5037321;28;45474;-76
2022/12/20 12:10:31;;;;;;;;;12.75;11.50;;;;;;;;5057226;28;45309;-76
2022/12/20 12:13:01;;;;;;;;;18.00;16.50;;;;;;;;5055521;28;45584;-76
2022/12/20 12:15:34;;;;;;;;;15.75;14.50;;;;;;;;5057040;28;46246;-76
2022/12/20 12:18:02;;;;;;;;;20.25;19.50;;;;;;;;5056030;28;45335;-75
2022/12/20 12:20:30;;;;;;;;;9.00;7.00;;;;;;;;5055689;28;45483;-77
2022/12/20 12:23:01;;;;;;;;;6.67;5.00;;;;;;;;5049115;28;45741;-76
2022/12/20 12:25:26;;;;;;;;;7.00;6.00;;;;;;;;5057130;28;46431;-75
2022/12/20 12:27:51;;;;;;;;;6.33;6.33;;;;;;;;5036888;28;45253;-76
2022/12/20 12:30:17;;;;;;;;;5.00;5.00;;;;;;;;5058649;28;45194;-76
2022/12/20 12:32:45;;;;;;;;;8.00;7.00;;;;;;;;5045888;28;45655;-76
2022/12/20 12:35:16;;;;;;;;;5.25;4.00;;;;;;;;5058455;28;45587;-76
2022/12/20 12:37:48;;;;;;;;;6.00;6.00;;;;;;;;5052910;28;45778;-76
2022/12/20 12:40:32;;;;;;;;;5.67;5.67;;;;;;;;5040285;28;45293;-75
2022/12/20 12:43:06;;;;;;;;;5.00;5.00;;;;;;;;5057998;28;45421;-75
2022/12/20 12:45:36;;;;;;;;;5.33;5.33;;;;;;;;5056322;28;45322;-75
2022/12/20 12:48:03;;;;;;;;;7.00;5.67;;;;;;;;5036751;28;45187;-74
2022/12/20 12:50:36;;;;;;;;;9.67;6.00;;;;;;;;5054904;28;45482;-76
2022/12/20 12:53:05;;;;;;;;;6.00;5.00;;;;;;;;5039292;28;46442;-74
2022/12/20 12:55:34;;;;;;;;;16.25;15.00;;;;;;;;5038121;28;47114;-74
2022/12/20 12:58:11;;;;;;;;;8.00;7.00;;;;;;;;5054484;28;45245;-74
2022/12/20 13:00:48;;;;;;;;;21.00;19.00;;;;;;;;5054703;28;44823;-74
2022/12/20 13:03:15;;;;;;;;;11.75;10.75;;;;;;;;5057345;28;45531;-74
2022/12/20 13:05:40;;;;;;;;;10.00;8.67;;;;;;;;5054595;28;45503;-74
2022/12/20 13:08:14;;;;;;;;;7.67;5.67;;;;;;;;5038400;28;45496;-73
2022/12/20 13:10:39;;;;;;;;;7.67;7.67;;;;;;;;5054980;28;45324;-73
2022/12/20 13:13:12;;;;;;;;;6.33;4.00;;;;;;;;5056033;28;45360;-75
2022/12/20 13:15:40;;;;;;;;;8.33;6.00;;;;;;;;5055139;28;45573;-74
2022/12/20 13:18:12;;;;;;;;;10.33;9.67;;;;;;;;5037965;28;45499;-73
2022/12/20 13:20:38;;;;;;;;;5.67;4.00;;;;;;;;5034222;28;45180;-75
2022/12/20 13:23:06;;;;;;;;;6.33;4.00;;;;;;;;5056149;28;45406;-75
2022/12/20 13:25:32;;;;;;;;;8.33;6.67;;;;;;;;5055668;28;45442;-74
2022/12/20 13:28:15;;;;;;;;;8.00;6.00;;;;;;;;5054226;28;45242;-74
2022/12/20 13:31:01;;;;;;;;;4.33;3.67;;;;;;;;5037223;28;45286;-76
2022/12/20 13:33:46;;;;;;;;;7.67;5.67;;;;;;;;5024925;28;46111;-78
2022/12/20 13:36:11;;;;;;;;;68.00;53.75;;;;;;;;5051202;28;45435;-73
2022/12/20 13:38:47;;;;;;;;;34.75;31.00;;;;;;;;5058318;28;45443;-73
2022/12/20 13:41:21;;;;;;;;;48.00;37.50;;;;;;;;5053717;28;45495;-72
2022/12/20 13:43:48;;;;;;;;;7.00;6.00;;;;;;;;5052225;28;44768;-77
2022/12/20 13:46:18;;;;;;;;;6.33;4.33;;;;;;;;5041654;28;45412;-76
2022/12/20 13:48:43;;;;;;;;;4.00;4.00;;;;;;;;5038830;28;45436;-75
2022/12/20 13:51:08;;;;;;;;;6.00;5.00;;;;;;;;5042970;28;45393;-76
2022/12/20 13:53:34;;;;;;;;;5.00;5.00;;;;;;;;5053820;28;45247;-77
2022/12/20 13:56:19;;;;;;;;;10.67;5.33;;;;;;;;5050913;28;46108;-77
2022/12/20 13:58:45;;;;;;;;;6.00;6.00;;;;;;;;5050155;28;45348;-77
2022/12/20 14:01:11;;;;;;;;;6.33;5.33;;;;;;;;5053999;28;45265;-81
2022/12/20 14:03:41;;;;;;;;;3.67;3.67;;;;;;;;5051956;28;45442;-76
2022/12/20 14:06:09;;;;;;;;;4.33;4.00;;;;;;;;5052993;28;45301;-76
2022/12/20 14:08:37;;;;;;;;;6.67;5.00;;;;;;;;5052116;28;45266;-76
2022/12/20 14:11:06;;;;;;;;;4.67;4.00;;;;;;;;5054836;28;45503;-77
2022/12/20 14:13:31;;;;;;;;;5.00;5.00;;;;;;;;5053360;28;45465;-76
2022/12/20 14:16:05;;;;;;;;;5.67;5.67;;;;;;;;5036182;28;46711;-77
2022/12/20 14:18:30;;;;;;;;;7.33;6.67;;;;;;;;5055789;28;45348;-77
2022/12/20 14:21:00;;;;;;;;;7.00;5.67;;;;;;;;5054801;28;45704;-77
2022/12/20 14:23:30;;;;;;;;;7.00;6.00;;;;;;;;5053777;28;45311;-77
2022/12/20 14:25:56;;;;;;;;;6.33;6.00;;;;;;;;5037626;28;47171;-77
2022/12/20 14:28:31;;;;;;;;;6.00;5.00;;;;;;;;5033605;28;45352;-77
2022/12/20 14:30:57;;;;;;;;;8.00;7.00;;;;;;;;5055248;28;45228;-77
2022/12/20 14:33:39;;;;;;;;;6.00;6.00;;;;;;;;5048090;28;45356;-77
2022/12/20 14:36:16;;;;;;;;;7.00;5.00;;;;;;;;5052961;28;45414;-77
2022/12/20 14:38:45;;;;;;;;;9.00;6.00;;;;;;;;5050769;28;45282;-78
2022/12/20 14:41:30;;;;;;;;;7.00;6.00;;;;;;;;5039021;28;45389;-77
2022/12/20 14:43:57;;;;;;;;;6.00;6.00;;;;;;;;5034394;28;45491;-77
2022/12/20 14:46:22;;;;;;;;;6.00;5.33;;;;;;;;5056263;28;46330;-77
2022/12/20 14:48:47;;;;;;;;;10.67;7.33;;;;;;;;5053380;28;45411;-78
2022/12/20 14:51:18;;;;;;;;;6.67;5.33;;;;;;;;5058484;28;45348;-78
2022/12/20 14:53:44;;;;;;;;;6.00;6.00;;;;;;;;5037268;28;46228;-77
2022/12/20 14:56:13;;;;;;;;;5.67;5.67;;;;;;;;5052729;28;45507;-78